createdAt,value
2023-03-29T00:01:35.765Z,66.35
2023-03-29T00:04:04.536Z,66.74
2023-03-29T00:06:31.275Z,66.19
2023-03-29T00:08:57.688Z,66.67
2023-03-29T00:11:24.101Z,66.36
2023-03-29T00:13:50.566Z,66.28
2023-03-29T00:16:17.512Z,66.09
2023-03-29T00:18:44.845Z,66.87
2023-03-29T00:21:11.551Z,66.41
2023-03-29T00:23:37.982Z,66.40
2023-03-29T00:26:07.163Z,67.04
2023-03-29T00:28:34.354Z,66.67
2023-03-29T00:31:12.482Z,66.44
2023-03-29T00:33:39.912Z,66.95
2023-03-29T00:36:07.380Z,66.81
2023-03-29T00:38:34.025Z,66.77
2023-03-29T00:41:00.960Z,66.83
2023-03-29T00:43:27.661Z,66.88
2023-03-29T00:45:54.123Z,66.68
2023-03-29T00:48:26.986Z,66.54
2023-03-29T00:51:00.372Z,66.81
2023-03-29T00:53:31.349Z,66.69
2023-03-29T00:56:15.965Z,67.04
2023-03-29T00:58:59.205Z,67.17
2023-03-29T01:01:34.102Z,67.18
2023-03-29T01:04:08.528Z,67.05
2023-03-29T01:06:35.988Z,67.21
2023-03-29T01:09:04.772Z,67.12
2023-03-29T01:11:35.923Z,67.52
2023-03-29T01:14:05.507Z,67.09
2023-03-29T01:16:33.142Z,67.23
2023-03-29T01:19:00.382Z,67.68
2023-03-29T01:21:32.255Z,67.11
2023-03-29T01:24:38.096Z,67.61
2023-03-29T01:27:18.819Z,67.27
2023-03-29T01:29:54.027Z,67.57
2023-03-29T01:32:27.176Z,67.77
2023-03-29T01:35:03.376Z,67.62
2023-03-29T01:37:34.443Z,67.35
2023-03-29T01:40:01.225Z,67.46
2023-03-29T01:42:48.533Z,67.75
2023-03-29T01:45:22.863Z,67.81
2023-03-29T01:48:07.168Z,67.92
2023-03-29T01:50:47.796Z,67.61
2023-03-29T01:53:28.603Z,67.34
2023-03-29T01:55:56.945Z,67.07
2023-03-29T01:58:26.466Z,66.98
2023-03-29T02:00:55.197Z,67.41
2023-03-29T02:03:24.365Z,67.40
2023-03-29T02:05:51.524Z,67.78
2023-03-29T02:08:19.776Z,67.35
2023-03-29T02:10:46.403Z,67.71
2023-03-29T02:13:12.962Z,67.59
2023-03-29T02:15:39.786Z,67.63
2023-03-29T02:18:06.722Z,67.72
2023-03-29T02:20:39.348Z,67.64
2023-03-29T02:23:14.840Z,67.53
2023-03-29T02:25:42.757Z,67.62
2023-03-29T02:28:09.431Z,67.60
2023-03-29T02:30:56.929Z,68.38
2023-03-29T02:33:27.580Z,68.03
2023-03-29T02:36:17.627Z,67.82
2023-03-29T02:38:44.353Z,67.59
2023-03-29T02:41:11.173Z,67.82
2023-03-29T02:43:38.696Z,67.53
2023-03-29T02:46:06.271Z,67.43
2023-03-29T02:48:34.084Z,67.77
2023-03-29T02:51:02.315Z,67.98
2023-03-29T02:53:32.452Z,67.55
2023-03-29T02:56:02.121Z,67.26
2023-03-29T02:58:29.438Z,67.56
2023-03-29T03:00:56.784Z,67.62
2023-03-29T03:03:23.424Z,67.83
2023-03-29T03:05:52.309Z,67.64
2023-03-29T03:08:18.748Z,68.01
2023-03-29T03:10:45.819Z,68.06
2023-03-29T03:13:12.587Z,67.60
2023-03-29T03:15:42.740Z,67.75
2023-03-29T03:18:10.574Z,67.53
2023-03-29T03:20:37.049Z,68.11
2023-03-29T03:23:03.627Z,68.10
2023-03-29T03:25:30.158Z,67.82
2023-03-29T03:27:57.156Z,67.70
2023-03-29T03:30:23.849Z,67.83
2023-03-29T03:32:50.299Z,67.90
2023-03-29T03:35:16.754Z,68.24
2023-03-29T03:37:43.200Z,67.94
2023-03-29T03:40:11.640Z,68.18
2023-03-29T03:42:39.303Z,68.51
2023-03-29T03:45:06.274Z,68.69
2023-03-29T03:47:32.927Z,68.52
2023-03-29T03:49:59.394Z,68.23
2023-03-29T03:52:26.210Z,68.53
2023-03-29T03:54:52.653Z,68.42
2023-03-29T03:57:19.152Z,68.80
2023-03-29T03:59:45.631Z,68.62
2023-03-29T04:02:12.212Z,68.90
2023-03-29T04:04:40.470Z,68.88
2023-03-29T04:07:07.027Z,68.94
2023-03-29T04:09:33.909Z,68.82
2023-03-29T04:12:01.510Z,68.70
2023-03-29T04:14:28.308Z,69.28
2023-03-29T04:16:54.770Z,69.07
2023-03-29T04:19:21.692Z,69.02
2023-03-29T04:21:49.605Z,69.16
2023-03-29T04:24:17.214Z,69.42
2023-03-29T04:26:43.951Z,69.46
2023-03-29T04:29:10.453Z,69.25
2023-03-29T04:31:37.307Z,69.60
2023-03-29T04:34:03.764Z,69.86
2023-03-29T04:36:30.187Z,69.55
2023-03-29T04:38:56.929Z,69.67
2023-03-29T04:41:23.702Z,69.52
2023-03-29T04:43:50.148Z,69.51
2023-03-29T04:46:16.981Z,69.82
2023-03-29T04:48:43.558Z,69.59
2023-03-29T04:51:09.989Z,69.75
2023-03-29T04:53:36.717Z,70.02
2023-03-29T04:56:03.193Z,69.91
2023-03-29T04:58:32.259Z,70.23
2023-03-29T05:00:59.238Z,70.51
2023-03-29T05:03:27.018Z,70.32
2023-03-29T05:05:53.464Z,70.09
2023-03-29T05:08:19.892Z,70.29
2023-03-29T05:10:47.489Z,70.47
2023-03-29T05:13:13.923Z,70.61
2023-03-29T05:15:41.675Z,70.50
2023-03-29T05:18:08.170Z,70.52
2023-03-29T05:20:34.715Z,70.54
2023-03-29T05:23:01.393Z,70.70
2023-03-29T05:25:28.133Z,70.56
2023-03-29T05:27:54.550Z,71.24
2023-03-29T05:30:20.985Z,70.89
2023-03-29T05:32:47.898Z,70.81
2023-03-29T05:35:14.369Z,71.08
2023-03-29T05:37:41.014Z,71.03
2023-03-29T05:40:10.429Z,71.25
2023-03-29T05:42:38.001Z,70.47
2023-03-29T05:45:04.847Z,70.77
2023-03-29T05:47:31.646Z,71.14
2023-03-29T05:49:58.130Z,71.20
2023-03-29T05:52:24.790Z,71.10
2023-03-29T05:54:51.528Z,71.29
2023-03-29T05:57:18.007Z,71.26
2023-03-29T05:59:44.451Z,71.61
2023-03-29T06:02:12.318Z,71.19
2023-03-29T06:04:39.962Z,71.99
2023-03-29T06:07:07.062Z,71.99
2023-03-29T06:09:34.188Z,71.95
2023-03-29T06:12:01.761Z,72.28
2023-03-29T06:14:28.897Z,71.88
2023-03-29T06:16:56.551Z,72.27
2023-03-29T06:19:23.140Z,72.00
2023-03-29T06:21:49.960Z,72.36
2023-03-29T06:24:16.448Z,72.50
2023-03-29T06:26:43.070Z,72.84
2023-03-29T06:29:10.245Z,72.52
2023-03-29T06:31:36.758Z,72.90
2023-03-29T06:34:04.631Z,72.98
2023-03-29T06:36:34.075Z,72.77
2023-03-29T06:39:00.856Z,73.40
2023-03-29T06:41:27.314Z,73.11
2023-03-29T06:43:54.734Z,73.28
2023-03-29T06:46:21.190Z,73.17
2023-03-29T06:48:48.288Z,73.52
2023-03-29T06:51:14.754Z,73.34
2023-03-29T06:53:41.400Z,73.23
2023-03-29T06:56:09.771Z,73.40
2023-03-29T06:58:36.420Z,73.58
2023-03-29T07:01:03.847Z,73.23
2023-03-29T07:03:30.644Z,73.45
2023-03-29T07:06:03.862Z,73.25
2023-03-29T07:08:31.684Z,73.19
2023-03-29T07:10:59.160Z,73.05
2023-03-29T07:13:26.288Z,73.40
2023-03-29T07:15:52.811Z,73.47
2023-03-29T07:18:19.364Z,73.49
2023-03-29T07:20:47.523Z,73.37
2023-03-29T07:23:14.108Z,73.61
2023-03-29T07:25:41.042Z,73.42
2023-03-29T07:28:07.517Z,72.99
2023-03-29T07:30:34.000Z,72.86
2023-03-29T07:33:00.744Z,72.73
2023-03-29T07:35:27.428Z,72.27
2023-03-29T07:37:55.783Z,72.64
2023-03-29T07:40:26.037Z,72.69
2023-03-29T07:42:54.685Z,72.49
2023-03-29T07:45:26.867Z,72.20
2023-03-29T07:47:58.939Z,72.26
2023-03-29T07:50:26.157Z,72.30
2023-03-29T07:52:52.698Z,71.41
2023-03-29T07:55:19.156Z,71.40
2023-03-29T07:57:45.790Z,71.13
2023-03-29T08:00:17.068Z,71.52
2023-03-29T08:02:44.741Z,71.38
2023-03-29T08:05:12.925Z,70.86
2023-03-29T08:07:41.305Z,70.46
2023-03-29T08:10:18.942Z,70.57
2023-03-29T08:12:47.391Z,70.80
2023-03-29T08:15:14.328Z,70.74
2023-03-29T08:17:41.673Z,70.53
2023-03-29T08:20:10.942Z,70.27
2023-03-29T08:22:37.823Z,70.18
2023-03-29T08:25:05.502Z,69.98
2023-03-29T08:27:32.226Z,69.95
2023-03-29T08:29:58.654Z,69.67
2023-03-29T08:32:25.145Z,69.71
2023-03-29T08:34:51.692Z,69.48
2023-03-29T08:37:18.284Z,69.42
2023-03-29T08:39:45.058Z,69.15
2023-03-29T08:42:29.596Z,69.24
2023-03-29T08:45:09.422Z,68.95
2023-03-29T08:47:51.374Z,69.02
2023-03-29T08:50:18.334Z,69.00
2023-03-29T08:52:54.240Z,69.26
2023-03-29T08:55:39.672Z,69.33
2023-03-29T08:58:08.389Z,69.17
2023-03-29T09:00:41.799Z,69.17
2023-03-29T09:03:15.835Z,69.11
2023-03-29T09:05:47.360Z,69.35
2023-03-29T09:08:17.313Z,69.16
2023-03-29T09:10:47.348Z,68.89
2023-03-29T09:13:13.701Z,69.03
2023-03-29T09:15:55.061Z,68.92
2023-03-29T09:18:29.403Z,67.89
2023-03-29T09:21:02.130Z,67.71
2023-03-29T09:23:48.277Z,67.14
2023-03-29T09:26:21.148Z,66.83
2023-03-29T09:29:16.562Z,66.21
2023-03-29T09:31:44.534Z,65.31
2023-03-29T09:34:21.618Z,64.71
2023-03-29T09:37:01.620Z,63.68
2023-03-29T09:39:28.402Z,63.78
2023-03-29T09:42:08.937Z,63.39
2023-03-29T09:44:55.832Z,63.07
2023-03-29T09:47:27.045Z,62.78
2023-03-29T09:49:59.351Z,62.48
2023-03-29T09:52:25.780Z,62.51
2023-03-29T09:54:52.502Z,62.41
2023-03-29T09:57:19.730Z,62.30
2023-03-29T09:59:47.317Z,62.45
2023-03-29T10:02:14.496Z,62.00
2023-03-29T10:04:44.701Z,61.60
2023-03-29T10:07:18.921Z,61.35
2023-03-29T10:09:45.950Z,60.70
2023-03-29T10:12:13.743Z,59.96
2023-03-29T10:14:46.447Z,60.44
2023-03-29T10:17:19.937Z,60.76
2023-03-29T10:19:51.647Z,60.64
2023-03-29T10:22:22.925Z,60.32
2023-03-29T10:24:51.756Z,59.82
2023-03-29T10:27:25.633Z,58.54
2023-03-29T10:29:52.745Z,57.74
2023-03-29T10:32:22.884Z,57.56
2023-03-29T10:34:50.340Z,57.73
2023-03-29T10:37:19.177Z,56.25
2023-03-29T10:39:46.817Z,55.93
2023-03-29T10:42:15.463Z,55.53
2023-03-29T10:44:42.049Z,55.42
2023-03-29T10:47:16.987Z,55.30
2023-03-29T10:49:47.812Z,54.79
2023-03-29T10:52:14.870Z,54.57
2023-03-29T10:54:41.472Z,53.84
2023-03-29T10:57:10.369Z,54.10
2023-03-29T10:59:42.874Z,54.92
2023-03-29T11:02:15.371Z,54.51
2023-03-29T11:05:00.028Z,53.33
2023-03-29T11:07:31.433Z,53.58
2023-03-29T11:10:35.351Z,52.73
2023-03-29T11:13:39.273Z,52.56
2023-03-29T11:16:18.298Z,51.34
2023-03-29T11:19:09.589Z,51.01
2023-03-29T11:21:50.042Z,50.52
2023-03-29T11:24:44.126Z,49.84
2023-03-29T11:27:24.402Z,50.24
2023-03-29T11:30:00.322Z,50.09
2023-03-29T11:32:39.792Z,51.26
2023-03-29T11:35:24.548Z,51.28
2023-03-29T11:38:05.338Z,50.06
2023-03-29T11:40:44.630Z,50.25
2023-03-29T11:43:15.579Z,50.44
2023-03-29T11:45:50.493Z,50.52
2023-03-29T11:48:22.269Z,50.55
2023-03-29T11:51:05.412Z,50.64
2023-03-29T11:53:39.266Z,50.48
2023-03-29T11:58:39.134Z,50.33
2023-03-29T12:01:09.946Z,50.82
2023-03-29T12:03:41.129Z,50.51
2023-03-29T12:06:30.172Z,50.37
2023-03-29T12:09:24.289Z,50.70
2023-03-29T12:12:03.493Z,51.04
2023-03-29T12:14:57.686Z,50.81
2023-03-29T12:17:31.600Z,51.08
2023-03-29T12:20:11.673Z,51.08
2023-03-29T12:22:38.145Z,51.03
2023-03-29T12:25:06.498Z,50.87
2023-03-29T12:27:38.150Z,51.05
2023-03-29T12:30:39.057Z,50.64
2023-03-29T12:33:17.836Z,50.69
2023-03-29T12:36:18.380Z,51.32
2023-03-29T12:38:45.114Z,52.29
2023-03-29T12:41:17.436Z,52.02
2023-03-29T12:43:43.941Z,51.86
2023-03-29T12:46:16.244Z,51.59
2023-03-29T12:48:44.574Z,51.98
2023-03-29T12:51:16.531Z,51.79
2023-03-29T12:53:45.383Z,51.86
2023-03-29T12:56:23.765Z,51.65
2023-03-29T12:59:11.580Z,51.32
2023-03-29T13:01:41.344Z,51.35
2023-03-29T13:04:21.551Z,51.34
2023-03-29T13:07:02.741Z,51.26
2023-03-29T13:09:53.947Z,50.99
2023-03-29T13:12:34.397Z,50.99
2023-03-29T13:15:06.238Z,51.50
2023-03-29T13:18:06.193Z,51.25
2023-03-29T13:20:37.293Z,51.37
2023-03-29T13:23:45.880Z,52.16
2023-03-29T13:26:25.267Z,52.30
2023-03-29T13:29:11.424Z,52.10
2023-03-29T13:31:44.194Z,51.58
2023-03-29T13:34:44.438Z,51.89
2023-03-29T13:37:27.129Z,52.14
2023-03-29T13:39:54.600Z,51.61
2023-03-29T13:42:24.615Z,51.69
2023-03-29T13:44:51.754Z,51.44
2023-03-29T13:47:37.041Z,51.11
2023-03-29T13:50:10.203Z,51.86
2023-03-29T13:52:40.924Z,52.28
2023-03-29T13:55:14.737Z,51.86
2023-03-29T13:57:44.256Z,51.95
2023-03-29T14:00:25.269Z,52.29
2023-03-29T14:02:55.360Z,51.78
2023-03-29T14:05:26.959Z,52.04
2023-03-29T14:07:54.483Z,52.06
2023-03-29T14:10:38.852Z,52.25
2023-03-29T14:13:05.374Z,52.53
2023-03-29T14:15:44.699Z,52.97
2023-03-29T14:18:12.752Z,53.44
2023-03-29T14:20:43.326Z,53.20
2023-03-29T14:23:13.241Z,53.17
2023-03-29T14:25:41.609Z,52.91
2023-03-29T14:28:28.348Z,53.21
2023-03-29T14:30:55.923Z,53.21
2023-03-29T14:33:29.813Z,53.31
2023-03-29T14:35:57.793Z,53.02
2023-03-29T14:38:25.190Z,52.95
2023-03-29T14:40:51.802Z,53.13
2023-03-29T14:43:24.263Z,52.70
2023-03-29T14:45:50.811Z,52.67
2023-03-29T14:48:18.014Z,52.93
2023-03-29T14:50:45.805Z,52.87
2023-03-29T14:53:18.721Z,52.79
2023-03-29T14:55:48.979Z,52.18
2023-03-29T14:58:31.793Z,52.19
2023-03-29T15:01:07.930Z,52.60
2023-03-29T15:03:47.378Z,53.27
2023-03-29T15:06:14.116Z,54.31
2023-03-29T15:08:46.000Z,53.99
2023-03-29T15:11:23.244Z,54.36
2023-03-29T15:13:52.393Z,54.58
2023-03-29T15:16:20.256Z,55.46
2023-03-29T15:18:49.724Z,55.72
2023-03-29T15:21:18.178Z,55.76
2023-03-29T15:23:53.793Z,55.98
2023-03-29T15:26:33.055Z,56.52
2023-03-29T15:29:23.490Z,56.66
2023-03-29T15:31:58.944Z,56.42
2023-03-29T15:34:27.931Z,56.68
2023-03-29T15:36:57.251Z,57.42
2023-03-29T15:39:23.951Z,57.45
2023-03-29T15:41:51.850Z,57.90
2023-03-29T15:44:29.498Z,57.97
2023-03-29T15:46:57.747Z,57.66
2023-03-29T15:49:24.932Z,58.01
2023-03-29T15:51:53.955Z,58.44
2023-03-29T15:54:24.495Z,58.90
2023-03-29T15:57:10.231Z,58.90
2023-03-29T15:59:36.804Z,59.22
2023-03-29T16:02:04.235Z,59.91
2023-03-29T16:04:30.811Z,60.41
2023-03-29T16:06:57.805Z,61.30
2023-03-29T16:09:25.656Z,62.02
2023-03-29T16:11:52.152Z,62.66
2023-03-29T16:14:29.772Z,63.16
2023-03-29T16:16:58.277Z,63.74
2023-03-29T16:19:25.892Z,64.20
2023-03-29T16:21:53.185Z,65.34
2023-03-29T16:24:25.148Z,66.39
2023-03-29T16:26:55.167Z,67.49
2023-03-29T16:29:22.645Z,68.93
2023-03-29T16:31:49.608Z,69.83
2023-03-29T16:34:18.642Z,71.29
2023-03-29T16:36:46.412Z,72.09
2023-03-29T16:39:15.964Z,72.67
2023-03-29T16:41:43.030Z,73.94
2023-03-29T16:44:15.748Z,75.42
2023-03-29T16:46:42.147Z,77.20
2023-03-29T16:49:13.836Z,78.30
2023-03-29T16:51:40.361Z,79.31
2023-03-29T16:54:07.217Z,80.32
2023-03-29T16:56:36.393Z,82.18
2023-03-29T16:59:03.144Z,84.78
2023-03-29T17:01:29.641Z,85.96
2023-03-29T17:03:57.088Z,87.30
2023-03-29T17:06:23.571Z,88.66
2023-03-29T17:08:50.513Z,89.73
2023-03-29T17:11:18.452Z,90.59
2023-03-29T17:13:44.952Z,90.81
2023-03-29T17:16:11.469Z,91.45
2023-03-29T17:18:38.113Z,91.67
2023-03-29T17:21:04.845Z,91.60
2023-03-29T17:23:31.488Z,91.50
2023-03-29T17:25:57.958Z,91.74
2023-03-29T17:28:24.417Z,91.63
2023-03-29T17:30:51.140Z,91.93
2023-03-29T17:33:19.208Z,91.77
2023-03-29T17:35:48.566Z,91.93
2023-03-29T17:38:15.026Z,92.10
2023-03-29T17:40:41.821Z,92.34
2023-03-29T17:43:08.262Z,92.61
2023-03-29T17:45:35.421Z,92.72
2023-03-29T17:48:04.086Z,92.61
2023-03-29T17:50:32.128Z,92.70
2023-03-29T17:52:58.545Z,92.76
2023-03-29T17:55:26.403Z,92.73
2023-03-29T17:57:52.874Z,92.78
2023-03-29T18:00:20.049Z,92.96
2023-03-29T18:02:46.698Z,93.16
2023-03-29T18:05:13.347Z,92.96
2023-03-29T18:07:39.821Z,93.19
2023-03-29T18:10:07.527Z,93.34
2023-03-29T18:12:33.956Z,93.27
2023-03-29T18:15:00.982Z,93.27
2023-03-29T18:17:27.769Z,93.06
2023-03-29T18:19:54.336Z,93.40
2023-03-29T18:22:20.930Z,93.31
2023-03-29T18:24:48.138Z,93.35
2023-03-29T18:27:16.000Z,93.07
2023-03-29T18:29:43.936Z,93.14
2023-03-29T18:32:11.062Z,93.28
2023-03-29T18:34:39.053Z,93.12
2023-03-29T18:37:05.976Z,92.96
2023-03-29T18:39:34.528Z,92.82
2023-03-29T18:42:01.663Z,93.08
2023-03-29T18:44:28.452Z,92.91
2023-03-29T18:46:54.872Z,93.08
2023-03-29T18:49:21.427Z,92.79
2023-03-29T18:51:48.290Z,92.46
2023-03-29T18:54:14.728Z,91.97
2023-03-29T18:56:41.198Z,91.69
2023-03-29T18:59:07.624Z,91.42
2023-03-29T19:01:34.566Z,91.16
2023-03-29T19:04:01.115Z,90.56
2023-03-29T19:06:28.599Z,90.80
2023-03-29T19:08:58.120Z,90.18
2023-03-29T19:11:25.995Z,89.99
2023-03-29T19:13:53.444Z,89.98
2023-03-29T19:16:20.123Z,90.02
2023-03-29T19:18:46.614Z,90.28
2023-03-29T19:21:13.074Z,90.39
2023-03-29T19:23:39.510Z,90.79
2023-03-29T19:26:06.370Z,90.60
2023-03-29T19:28:33.992Z,90.91
2023-03-29T19:31:01.911Z,90.73
2023-03-29T19:33:29.323Z,90.86
2023-03-29T19:35:56.302Z,90.97
2023-03-29T19:38:23.764Z,91.16
2023-03-29T19:40:51.343Z,91.42
2023-03-29T19:43:18.254Z,91.31
2023-03-29T19:45:45.990Z,91.36
2023-03-29T19:48:21.960Z,91.47
2023-03-29T19:50:49.378Z,91.75
2023-03-29T19:53:15.873Z,91.69
2023-03-29T19:55:43.064Z,91.89
2023-03-29T19:58:09.487Z,91.89
2023-03-29T20:00:36.127Z,91.95
2023-03-29T20:03:03.096Z,91.90
2023-03-29T20:05:29.543Z,92.00
2023-03-29T20:07:56.973Z,91.99
2023-03-29T20:10:23.406Z,92.04
2023-03-29T20:12:50.926Z,92.07
2023-03-29T20:15:17.534Z,92.04
2023-03-29T20:17:44.049Z,91.81
2023-03-29T20:20:12.021Z,91.90
2023-03-29T20:22:42.040Z,91.50
2023-03-29T20:25:09.353Z,90.91
2023-03-29T20:27:35.981Z,90.50
2023-03-29T20:30:03.344Z,90.14
2023-03-29T20:32:29.980Z,89.86
2023-03-29T20:34:56.502Z,89.39
2023-03-29T20:37:23.030Z,89.23
2023-03-29T20:39:49.707Z,89.13
2023-03-29T20:42:16.228Z,89.00
2023-03-29T20:44:50.325Z,88.77
2023-03-29T20:47:20.200Z,88.37
2023-03-29T20:49:46.673Z,88.48
2023-03-29T20:52:17.070Z,88.61
2023-03-29T20:54:44.871Z,88.86
2023-03-29T20:57:14.110Z,89.44
2023-03-29T20:59:41.545Z,89.45
2023-03-29T21:02:09.533Z,89.64
2023-03-29T21:04:36.039Z,89.83
2023-03-29T21:07:05.056Z,89.83
2023-03-29T21:09:34.022Z,89.86
2023-03-29T21:12:00.788Z,89.77
2023-03-29T21:14:29.419Z,89.97
2023-03-29T21:16:56.049Z,90.00
2023-03-29T21:19:22.749Z,89.99
2023-03-29T21:21:52.169Z,90.09
2023-03-29T21:24:19.105Z,90.08
2023-03-29T21:26:46.295Z,90.28
2023-03-29T21:29:13.272Z,90.23
2023-03-29T21:31:40.065Z,90.38
2023-03-29T21:34:06.625Z,90.46
2023-03-29T21:36:34.052Z,90.56
2023-03-29T21:39:00.465Z,90.99
2023-03-29T21:41:27.109Z,91.36
2023-03-29T21:43:53.537Z,91.65
2023-03-29T21:46:19.996Z,91.82
2023-03-29T21:48:46.413Z,92.21
2023-03-29T21:51:12.879Z,92.74
2023-03-29T21:53:39.639Z,93.10
2023-03-29T21:56:06.679Z,93.44
2023-03-29T21:58:33.126Z,93.42
2023-03-29T22:01:03.499Z,93.83
2023-03-29T22:03:30.204Z,94.07
2023-03-29T22:06:03.843Z,94.39
2023-03-29T22:08:30.929Z,94.54
2023-03-29T22:10:57.374Z,94.67
2023-03-29T22:13:28.393Z,94.86
2023-03-29T22:15:59.067Z,95.25
2023-03-29T22:18:30.376Z,95.13
2023-03-29T22:20:57.206Z,95.34
2023-03-29T22:23:24.875Z,95.41
2023-03-29T22:25:51.361Z,95.73
2023-03-29T22:28:17.786Z,96.01
2023-03-29T22:30:44.210Z,96.18
2023-03-29T22:33:11.096Z,96.58
2023-03-29T22:35:37.605Z,97.07
2023-03-29T22:38:04.093Z,96.64
2023-03-29T22:40:33.137Z,97.08
2023-03-29T22:42:59.768Z,97.10
2023-03-29T22:45:26.169Z,97.41
2023-03-29T22:47:52.636Z,97.67
2023-03-29T22:50:19.055Z,98.03
2023-03-29T22:52:45.630Z,98.05
2023-03-29T22:55:12.056Z,98.20
2023-03-29T22:57:38.512Z,98.42
2023-03-29T23:00:09.081Z,98.37
2023-03-29T23:02:36.512Z,98.86
2023-03-29T23:05:02.983Z,98.68
2023-03-29T23:07:29.464Z,98.57
2023-03-29T23:09:56.178Z,98.70
2023-03-29T23:12:24.157Z,99.02
2023-03-29T23:14:53.009Z,99.19
2023-03-29T23:17:19.504Z,99.05
2023-03-29T23:19:45.969Z,99.38
2023-03-29T23:22:12.404Z,99.58
2023-03-29T23:24:38.807Z,99.73
2023-03-29T23:27:05.451Z,99.79
2023-03-29T23:29:31.922Z,100.00
2023-03-29T23:31:59.481Z,100.00
2023-03-29T23:34:25.919Z,100.00
2023-03-29T23:36:52.352Z,100.00
2023-03-29T23:39:18.783Z,100.00
2023-03-29T23:41:45.549Z,100.00
2023-03-29T23:44:11.968Z,100.00
2023-03-29T23:46:38.389Z,100.00
2023-03-29T23:49:04.874Z,100.00
2023-03-29T23:51:31.312Z,100.00
2023-03-29T23:53:57.770Z,100.00
2023-03-29T23:56:24.274Z,100.00
2023-03-29T23:58:50.975Z,100.00
